createdAt,value
2022-11-29T00:00:27.307Z,79.29
2022-11-29T00:02:57.985Z,79.48
2022-11-29T00:05:28.413Z,79.55
2022-11-29T00:07:58.764Z,79.56
2022-11-29T00:10:29.717Z,79.52
2022-11-29T00:13:00.217Z,79.44
2022-11-29T00:15:30.569Z,79.39
2022-11-29T00:18:00.836Z,79.55
2022-11-29T00:20:32.165Z,79.85
2022-11-29T00:23:01.955Z,79.61
2022-11-29T00:25:32.048Z,79.32
2022-11-29T00:28:02.756Z,79.46
2022-11-29T00:30:33.528Z,79.30
2022-11-29T00:33:05.315Z,78.93
2022-11-29T00:35:35.654Z,79.03
2022-11-29T00:38:05.976Z,78.83
2022-11-29T00:40:36.265Z,79.05
2022-11-29T00:43:06.500Z,78.93
2022-11-29T00:45:36.687Z,78.78
2022-11-29T00:48:07.148Z,78.73
2022-11-29T00:50:37.418Z,78.74
2022-11-29T00:53:08.145Z,78.94
2022-11-29T00:55:38.728Z,78.83
2022-11-29T00:58:09.068Z,78.69
2022-11-29T01:00:39.323Z,79.11
2022-11-29T01:03:09.878Z,78.86
2022-11-29T01:05:40.552Z,78.94
2022-11-29T01:08:11.009Z,79.12
2022-11-29T01:10:41.529Z,78.96
2022-11-29T01:13:12.274Z,78.97
2022-11-29T01:15:45.897Z,79.05
2022-11-29T01:18:21.581Z,78.53
2022-11-29T01:21:13.946Z,78.65
2022-11-29T01:23:45.122Z,78.76
2022-11-29T01:26:21.075Z,78.71
2022-11-29T01:28:55.062Z,79.10
2022-11-29T01:31:31.208Z,78.97
2022-11-29T01:34:04.557Z,78.90
2022-11-29T01:36:35.239Z,78.46
2022-11-29T01:39:08.035Z,78.67
2022-11-29T01:41:40.050Z,78.45
2022-11-29T01:44:15.119Z,78.99
2022-11-29T01:46:48.292Z,78.94
2022-11-29T01:49:23.510Z,78.84
2022-11-29T01:52:04.176Z,78.76
2022-11-29T01:54:37.839Z,78.56
2022-11-29T01:57:10.113Z,78.88
2022-11-29T01:59:46.706Z,78.67
2022-11-29T02:02:22.490Z,78.54
2022-11-29T02:04:55.230Z,78.82
2022-11-29T02:07:25.624Z,79.00
2022-11-29T02:09:55.972Z,79.04
2022-11-29T02:12:51.175Z,78.94
2022-11-29T02:15:40.536Z,78.93
2022-11-29T02:18:35.871Z,78.72
2022-11-29T02:22:00.700Z,78.91
2022-11-29T02:24:36.569Z,78.29
2022-11-29T02:27:38.712Z,78.36
2022-11-29T02:30:40.447Z,78.45
2022-11-29T02:33:54.323Z,78.78
2022-11-29T02:36:39.401Z,78.91
2022-11-29T02:39:39.541Z,78.95
2022-11-29T02:42:25.062Z,79.02
2022-11-29T02:45:18.817Z,78.85
2022-11-29T02:48:08.837Z,78.47
2022-11-29T02:50:42.204Z,78.58
2022-11-29T02:53:20.912Z,78.31
2022-11-29T02:56:09.717Z,78.35
2022-11-29T02:59:06.319Z,78.29
2022-11-29T03:02:02.745Z,77.92
2022-11-29T03:04:50.986Z,77.92
2022-11-29T03:07:30.245Z,78.00
2022-11-29T03:10:11.426Z,78.29
2022-11-29T03:12:43.405Z,78.26
2022-11-29T03:15:52.296Z,78.06
2022-11-29T03:18:48.961Z,78.10
2022-11-29T03:21:25.101Z,78.30
2022-11-29T03:24:07.516Z,78.81
2022-11-29T03:26:43.598Z,78.32
2022-11-29T03:29:25.366Z,78.56
2022-11-29T03:32:33.321Z,77.44
2022-11-29T03:35:22.060Z,77.38
2022-11-29T03:37:58.241Z,76.84
2022-11-29T03:41:17.823Z,76.92
2022-11-29T03:44:06.371Z,76.60
2022-11-29T03:46:56.273Z,76.42
2022-11-29T03:49:55.317Z,77.20
2022-11-29T03:52:43.245Z,77.14
2022-11-29T03:55:22.245Z,76.64
2022-11-29T03:58:11.393Z,77.03
2022-11-29T04:01:04.696Z,77.39
2022-11-29T04:03:47.591Z,77.35
2022-11-29T04:06:37.838Z,77.54
2022-11-29T04:09:31.769Z,77.02
2022-11-29T04:12:24.979Z,77.47
2022-11-29T04:15:32.527Z,76.66
2022-11-29T04:18:27.243Z,76.30
2022-11-29T04:21:15.956Z,76.22
2022-11-29T04:24:05.079Z,76.80
2022-11-29T04:26:47.334Z,76.35
2022-11-29T04:29:40.215Z,75.93
2022-11-29T04:33:09.870Z,75.74
2022-11-29T04:36:13.820Z,75.71
2022-11-29T04:39:10.103Z,75.62
2022-11-29T04:42:17.105Z,76.00
2022-11-29T04:44:58.969Z,76.25
2022-11-29T04:47:50.945Z,76.64
2022-11-29T04:50:35.850Z,77.02
2022-11-29T04:53:14.793Z,75.90
2022-11-29T04:56:18.500Z,76.49
2022-11-29T04:59:00.440Z,76.37
2022-11-29T05:01:39.646Z,75.31
2022-11-29T05:04:29.296Z,75.85
2022-11-29T05:07:10.514Z,77.08
2022-11-29T05:09:58.544Z,75.23
2022-11-29T05:12:46.872Z,74.82
2022-11-29T05:15:47.149Z,75.22
2022-11-29T05:18:56.141Z,74.71
2022-11-29T05:21:32.210Z,75.45
2022-11-29T05:24:14.365Z,76.05
2022-11-29T05:26:59.863Z,75.37
2022-11-29T05:29:56.037Z,75.12
2022-11-29T05:32:48.471Z,74.95
2022-11-29T05:35:43.193Z,75.23
2022-11-29T05:38:26.371Z,75.30
2022-11-29T05:41:15.115Z,75.29
2022-11-29T05:44:18.735Z,74.34
2022-11-29T05:46:55.725Z,73.84
2022-11-29T05:49:40.968Z,74.58
2022-11-29T05:52:26.778Z,74.62
2022-11-29T05:55:18.876Z,74.62
2022-11-29T05:58:30.492Z,74.56
2022-11-29T06:01:42.151Z,74.09
2022-11-29T06:04:20.377Z,74.10
2022-11-29T06:07:17.318Z,74.02
2022-11-29T06:09:59.184Z,74.73
2022-11-29T06:12:38.040Z,73.97
2022-11-29T06:15:48.346Z,74.95
2022-11-29T06:18:35.156Z,73.84
2022-11-29T06:21:15.426Z,74.66
2022-11-29T06:24:12.665Z,74.63
2022-11-29T06:26:42.875Z,73.79
2022-11-29T06:29:32.434Z,74.16
2022-11-29T06:32:45.762Z,73.01
2022-11-29T06:35:21.855Z,72.67
2022-11-29T06:37:55.245Z,73.19
2022-11-29T06:40:25.850Z,73.11
2022-11-29T06:42:56.176Z,73.49
2022-11-29T06:45:26.856Z,72.76
2022-11-29T06:48:09.329Z,73.17
2022-11-29T06:50:56.308Z,73.57
2022-11-29T06:53:57.700Z,72.61
2022-11-29T06:56:41.021Z,73.16
2022-11-29T06:59:39.141Z,72.35
2022-11-29T07:02:42.607Z,73.03
2022-11-29T07:05:18.840Z,72.58
2022-11-29T07:07:50.733Z,72.20
2022-11-29T07:10:23.026Z,72.67
2022-11-29T07:12:54.532Z,72.26
2022-11-29T07:15:26.039Z,71.92
2022-11-29T07:18:14.575Z,72.13
2022-11-29T07:21:10.300Z,71.24
2022-11-29T07:23:46.524Z,72.19
2022-11-29T07:26:24.678Z,71.86
2022-11-29T07:29:31.528Z,72.05
2022-11-29T07:32:26.645Z,71.26
2022-11-29T07:35:09.356Z,71.17
2022-11-29T07:38:16.001Z,72.05
2022-11-29T07:41:15.093Z,71.47
2022-11-29T07:44:14.179Z,71.18
2022-11-29T07:46:44.564Z,71.48
2022-11-29T07:49:15.010Z,71.68
2022-11-29T07:51:45.333Z,71.70
2022-11-29T07:54:20.024Z,71.10
2022-11-29T07:56:50.513Z,70.88
2022-11-29T07:59:20.896Z,71.52
2022-11-29T08:01:51.264Z,71.22
2022-11-29T08:04:21.450Z,71.76
2022-11-29T08:06:51.758Z,71.62
2022-11-29T08:09:22.259Z,71.70
2022-11-29T08:11:52.556Z,72.16
2022-11-29T08:14:23.843Z,72.07
2022-11-29T08:16:54.093Z,71.88
2022-11-29T08:19:24.532Z,72.11
2022-11-29T08:21:54.889Z,72.85
2022-11-29T08:24:25.425Z,72.53
2022-11-29T08:26:55.635Z,73.00
2022-11-29T08:29:26.257Z,72.91
2022-11-29T08:31:57.198Z,72.86
2022-11-29T08:34:28.181Z,73.08
2022-11-29T08:36:58.933Z,73.24
2022-11-29T08:39:29.209Z,73.27
2022-11-29T08:41:59.494Z,73.34
2022-11-29T08:44:29.744Z,73.13
2022-11-29T08:47:18.235Z,73.57
2022-11-29T08:50:03.881Z,73.22
2022-11-29T08:52:58.562Z,73.09
2022-11-29T08:55:33.655Z,73.37
2022-11-29T08:58:09.580Z,73.48
2022-11-29T09:00:40.728Z,73.25
2022-11-29T09:03:28.889Z,73.40
2022-11-29T09:05:59.852Z,73.80
2022-11-29T09:08:30.193Z,73.36
2022-11-29T09:11:01.619Z,73.97
2022-11-29T09:13:32.230Z,73.27
2022-11-29T09:16:02.532Z,73.69
2022-11-29T09:18:32.987Z,73.68
2022-11-29T09:21:03.325Z,73.69
2022-11-29T09:23:33.878Z,73.15
2022-11-29T09:26:04.610Z,73.31
2022-11-29T09:28:35.703Z,73.43
2022-11-29T09:31:15.669Z,73.27
2022-11-29T09:33:47.745Z,73.61
2022-11-29T09:36:18.115Z,73.39
2022-11-29T09:38:48.529Z,73.65
2022-11-29T09:41:38.423Z,73.15
2022-11-29T09:44:42.360Z,73.32
2022-11-29T09:47:30.927Z,73.55
2022-11-29T09:50:25.177Z,73.31
2022-11-29T09:53:19.777Z,73.46
2022-11-29T09:56:18.747Z,73.32
2022-11-29T09:58:56.657Z,73.65
2022-11-29T10:01:32.878Z,73.48
2022-11-29T10:04:14.247Z,73.18
2022-11-29T10:06:53.400Z,73.39
2022-11-29T10:09:33.900Z,73.18
2022-11-29T10:12:22.637Z,73.32
2022-11-29T10:15:00.315Z,73.40
2022-11-29T10:17:58.641Z,73.22
2022-11-29T10:20:36.444Z,73.50
2022-11-29T10:23:18.899Z,73.45
2022-11-29T10:25:52.468Z,73.86
2022-11-29T10:28:30.086Z,73.81
2022-11-29T10:31:18.098Z,73.83
2022-11-29T10:33:49.393Z,73.73
2022-11-29T10:36:35.512Z,73.92
2022-11-29T10:39:27.993Z,73.64
2022-11-29T10:42:02.667Z,73.65
2022-11-29T10:44:35.427Z,73.36
2022-11-29T10:47:10.883Z,73.85
2022-11-29T10:49:42.539Z,73.20
2022-11-29T10:52:30.836Z,73.50
2022-11-29T10:55:02.335Z,73.36
2022-11-29T10:57:32.619Z,73.28
2022-11-29T11:00:12.025Z,73.46
2022-11-29T11:02:42.564Z,73.81
2022-11-29T11:05:20.845Z,73.63
2022-11-29T11:07:59.741Z,73.67
2022-11-29T11:10:33.105Z,73.63
2022-11-29T11:13:09.360Z,74.02
2022-11-29T11:15:40.033Z,73.83
2022-11-29T11:18:24.430Z,73.78
2022-11-29T11:20:57.320Z,73.85
2022-11-29T11:23:32.269Z,74.04
2022-11-29T11:26:12.331Z,73.73
2022-11-29T11:28:55.095Z,73.67
2022-11-29T11:31:38.159Z,73.60
2022-11-29T11:34:29.073Z,73.94
2022-11-29T11:37:17.726Z,73.82
2022-11-29T11:39:50.385Z,73.93
2022-11-29T11:42:40.091Z,73.95
2022-11-29T11:45:16.309Z,74.18
2022-11-29T11:47:59.275Z,74.25
2022-11-29T11:50:55.020Z,74.30
2022-11-29T11:53:32.599Z,74.61
2022-11-29T11:56:04.909Z,74.32
2022-11-29T11:58:42.050Z,74.67
2022-11-29T12:01:14.982Z,74.52
2022-11-29T12:04:06.790Z,74.32
2022-11-29T12:07:03.333Z,74.55
2022-11-29T12:10:02.874Z,74.55
2022-11-29T12:12:39.403Z,74.59
2022-11-29T12:15:41.580Z,74.61
2022-11-29T12:18:38.363Z,74.66
2022-11-29T12:21:19.837Z,74.40
2022-11-29T12:24:21.742Z,74.38
2022-11-29T12:26:57.580Z,74.57
2022-11-29T12:29:32.146Z,74.98
2022-11-29T12:32:28.663Z,74.75
2022-11-29T12:35:25.822Z,75.40
2022-11-29T12:38:09.130Z,75.60
2022-11-29T12:41:29.378Z,75.20
2022-11-29T12:44:31.836Z,75.38
2022-11-29T12:47:35.713Z,75.52
2022-11-29T12:50:13.846Z,75.08
2022-11-29T12:52:50.438Z,74.93
2022-11-29T12:55:31.382Z,75.15
2022-11-29T12:58:09.516Z,75.42
2022-11-29T13:00:53.099Z,75.35
2022-11-29T13:03:46.692Z,75.17
2022-11-29T13:06:32.757Z,75.09
2022-11-29T13:09:11.357Z,74.74
2022-11-29T13:12:07.826Z,74.27
2022-11-29T13:14:59.848Z,74.00
2022-11-29T13:17:50.510Z,72.97
2022-11-29T13:20:32.917Z,72.81
2022-11-29T13:24:09.404Z,72.20
2022-11-29T13:26:43.221Z,72.09
2022-11-29T13:29:19.766Z,72.22
2022-11-29T13:31:51.460Z,72.79
2022-11-29T13:34:33.042Z,72.60
2022-11-29T13:37:27.253Z,72.89
2022-11-29T13:40:23.593Z,72.10
2022-11-29T22:53:51.584Z,80.03
2022-11-29T22:56:23.078Z,79.80
2022-11-29T23:01:54.603Z,78.60
2022-11-29T23:04:25.992Z,78.36
2022-11-29T23:06:56.164Z,78.37
2022-11-29T23:09:26.353Z,78.29
2022-11-29T23:11:58.393Z,78.28
2022-11-29T23:14:28.618Z,78.36
2022-11-29T23:16:58.929Z,78.18
2022-11-29T23:19:29.090Z,78.39
2022-11-29T23:21:59.161Z,78.16
2022-11-29T23:24:29.293Z,78.07
2022-11-29T23:26:59.556Z,78.20
2022-11-29T23:29:29.678Z,77.89
2022-11-29T23:31:59.754Z,77.94
2022-11-29T23:34:31.680Z,77.76
2022-11-29T23:37:01.927Z,77.77
2022-11-29T23:39:32.106Z,77.74
2022-11-29T23:42:02.233Z,77.73
2022-11-29T23:44:33.677Z,78.04
2022-11-29T23:47:03.921Z,77.71
2022-11-29T23:49:38.484Z,77.70
2022-11-29T23:52:08.779Z,77.76
2022-11-29T23:54:39.442Z,77.69
2022-11-29T23:57:09.854Z,77.66
2022-11-29T23:59:41.925Z,77.72
